Latest Weather Observations for Kilmore Gap

IDV60801

Issued at 12:02 am EST Wednesday 27 July 2016 (issued every 30 minutes, with the page automatically refreshed every 10 minutes)

About weather observations | Map of weather stations | Latest weather observations for VIC | Other Formats
Station Details ID: 088162 Name: KILMORE GAP Lat: -37.38 Lon: 144.97 Height: 527.8 m
Data from the previous 72 hours. | See also: Recent months at Kilmore Gap
Date/Time
EST
Temp
°C
App
Temp
°C
Dew
Point
°C
Rel
Hum
%
Delta-T
°C
Wind Press
QNH
hPa
Press
MSL
hPa
Rain since
9am
mm
Dir  Spd
km/h
Gust
km/h
Spd
kts
Gust
kts
27/12:00am 4.4 -4.3 4.3 99 0.0 N 39 50 21 27 1005.4 1006.3 3.0
 
Date/Time
EST
Temp
°C
App
Temp
°C
Dew
Point
°C
Rel
Hum
%
Delta-T
°C
Wind Press
QNH
hPa
Press
MSL
hPa
Rain since
9am
mm
Dir  Spd
km/h
Gust
km/h
Spd
kts
Gust
kts
26/11:00pm 4.6 -4.1 4.3 98 0.1 N 39 52 21 28 1005.8 - 2.6
26/10:30pm 4.7 -4.3 4.4 98 0.1 N 41 54 22 29 1006.0 - 2.6
26/10:01pm 4.6 -4.4 4.3 98 0.1 N 41 65 22 35 1005.8 - 2.6
26/10:00pm 4.5 -4.2 4.2 98 0.1 N 39 54 21 29 1006.0 - 2.6
26/09:30pm 4.6 -4.8 4.3 98 0.1 N 43 54 23 29 1006.5 - 2.6
26/09:00pm 4.6 -5.4 4.2 97 0.2 N 46 57 25 31 1005.9 1006.8 2.6
26/08:30pm 4.7 -6.1 4.0 95 0.3 N 50 61 27 33 1006.3 - 2.6
26/08:00pm 4.8 -5.2 4.5 98 0.1 N 46 59 25 32 1007.1 - 2.6
26/07:30pm 4.9 -5.0 4.6 98 0.1 N 46 63 25 34 1007.3 - 2.6
26/07:00pm 4.9 -7.5 4.6 98 0.1 N 59 82 32 44 1006.6 - 2.6
26/06:34pm 4.4 -6.8 4.1 98 0.1 N 52 63 28 34 1007.4 - 2.0
26/06:30pm 4.4 -6.4 4.1 98 0.1 N 50 63 27 34 1007.4 - 2.0
26/06:00pm 4.7 -4.9 4.4 98 0.1 N 44 54 24 29 1007.6 1008.5 1.4
26/05:32pm 4.8 -4.8 4.5 98 0.1 N 44 57 24 31 1007.7 - 1.2
26/05:30pm 4.8 -4.6 4.5 98 0.1 N 43 57 23 31 1007.9 - 1.2
26/05:28pm 4.8 -4.2 4.5 98 0.1 N 41 57 22 31 1007.7 - 1.2
26/05:27pm 4.8 -3.8 4.5 98 0.1 N 39 57 21 31 1007.8 - 1.0
26/05:00pm 4.9 -4.7 4.6 98 0.1 N 44 57 24 31 1007.9 - 0.8
26/04:30pm 4.7 -4.4 4.0 95 0.3 N 41 52 22 28 1008.0 - 0.6
26/04:00pm 4.9 -4.2 4.2 95 0.3 N 41 52 22 28 1008.7 - 0.6
26/03:30pm 5.5 -1.9 4.0 90 0.7 N 32 44 17 24 1009.2 - 0.0
26/03:00pm 5.3 -1.1 5.0 98 0.1 N 28 37 15 20 1009.6 1010.6 0.0
26/02:30pm 4.5 -3.1 3.8 95 0.3 N 33 41 18 22 1010.2 - 0.0
26/02:00pm 5.5 -1.6 3.8 89 0.7 N 30 37 16 20 1010.7 - 0.0
26/01:30pm 4.8 -2.3 3.6 92 0.5 N 30 41 16 22 1011.0 - 0.0
26/01:00pm 4.8 -3.3 3.0 88 0.8 NNW 35 46 19 25 1011.3 - 0.0
26/12:30pm 4.7 -2.8 3.2 90 0.6 NNW 32 43 17 23 1011.9 - 0.0
26/12:00pm 4.3 -3.1 4.0 98 0.1 N 32 37 17 20 1012.3 1013.3 0.0
26/11:30am 3.7 -4.0 3.4 98 0.1 N 33 43 18 23 1012.3 - 0.0
26/11:00am 3.3 -4.5 3.0 98 0.1 N 33 41 18 22 1012.7 - 0.0
26/10:30am 3.0 -4.8 2.7 98 0.1 N 33 43 18 23 1012.8 - 0.0
26/10:00am 3.0 -4.8 2.9 99 0.0 N 33 41 18 22 1012.7 - 0.0
26/09:31am 2.7 -4.2 2.6 99 0.0 N 28 35 15 19 1012.7 - 0.0
26/09:30am 2.7 -4.2 2.6 99 0.0 N 28 35 15 19 1012.7 - 0.0
26/09:00am 2.1 -4.9 2.0 99 0.0 N 28 39 15 21 1012.7 1013.6 3.0
26/08:30am 1.7 -5.4 1.4 98 0.1 N 28 35 15 19 1012.6 - 3.0
26/08:00am 1.5 -4.9 1.2 98 0.1 N 24 30 13 16 1012.6 - 3.0
26/07:55am 1.4 -5.4 1.1 98 0.1 N 26 33 14 18 1012.6 - 3.0
26/07:30am 1.5 -6.0 1.2 98 0.1 N 30 39 16 21 1012.0 - 3.0
26/07:24am 1.5 -6.0 1.2 98 0.1 N 30 39 16 21 1012.0 - 3.0
26/07:00am 1.4 -5.4 1.1 98 0.1 N 26 32 14 17 1011.8 - 3.0
26/06:30am 1.6 -5.1 1.3 98 0.1 N 26 32 14 17 1011.3 - 3.0
26/06:00am 2.6 -3.7 1.4 92 0.5 NNW 24 30 13 16 1011.0 1011.9 3.0
26/05:30am 2.5 -3.8 1.6 94 0.4 NNW 24 32 13 17 1010.7 - 3.0
26/05:00am 2.5 -3.8 1.3 92 0.5 NNW 24 30 13 16 1010.2 - 3.0
26/04:30am 2.9 -3.4 1.6 91 0.5 N 24 32 13 17 1010.1 - 3.0
26/04:00am 2.2 -4.3 0.4 88 0.7 NNW 24 33 13 18 1009.9 - 3.0
26/03:30am 2.3 -3.8 0.7 89 0.6 NNW 22 30 12 16 1010.0 - 3.0
26/03:00am 2.8 -3.2 0.9 87 0.7 NW 22 32 12 17 1009.8 1010.8 3.0
26/02:30am 3.0 -3.0 1.2 88 0.7 NW 22 35 12 19 1009.6 - 3.0
26/02:00am 3.4 -2.5 1.4 87 0.8 NW 22 30 12 16 1009.4 - 3.0
26/01:30am 3.5 -2.8 1.4 86 0.8 NW 24 33 13 18 1009.3 - 3.0
26/01:00am 3.5 -2.8 1.4 86 0.8 NW 24 33 13 18 1008.8 - 3.0
26/12:30am 3.4 -2.9 1.6 88 0.7 NW 24 33 13 18 1008.4 - 3.0
26/12:00am 3.0 -2.9 1.8 92 0.5 NW 22 32 12 17 1008.6 1009.5 3.0
 
Date/Time
EST
Temp
°C
App
Temp
°C
Dew
Point
°C
Rel
Hum
%
Delta-T
°C
Wind Press
QNH
hPa
Press
MSL
hPa
Rain since
9am
mm
Dir  Spd
km/h
Gust
km/h
Spd
kts
Gust
kts
25/11:30pm 3.3 -2.1 1.2 86 0.8 WNW 19 28 10 15 1008.4 - 3.0
25/11:00pm 4.1 -3.2 0.3 76 1.5 W 28 46 15 25 1007.9 - 3.0
25/10:30pm 4.0 -3.5 1.4 83 1.1 W 30 43 16 23 1007.7 - 3.0
25/10:00pm 3.7 -3.0 3.4 98 0.1 W 28 46 15 25 1007.5 - 3.0
25/09:56pm 3.5 -4.2 3.2 98 0.1 W 33 52 18 28 1007.4 - 2.8
25/09:30pm 5.9 0.0 4.1 88 0.8 WNW 24 39 13 21 1007.0 - 2.0
25/09:00pm 6.0 -0.6 4.3 89 0.8 NW 28 41 15 22 1006.6 1007.5 2.0
25/08:30pm 6.4 -0.1 4.9 90 0.7 NW 28 39 15 21 1006.6 - 2.0
25/08:00pm 6.8 -0.5 5.6 92 0.6 NW 33 48 18 26 1005.8 - 2.0
25/07:51pm 6.6 -1.4 5.6 93 0.5 NW 37 57 20 31 1005.9 - 2.0
25/07:31pm 6.9 -3.9 5.8 93 0.5 NW 52 70 28 38 1005.2 - 1.8
25/07:30pm 6.9 -3.6 5.8 93 0.5 NW 50 67 27 36 1005.2 - 1.8
25/07:01pm 7.0 -4.4 6.7 98 0.1 NNW 56 74 30 40 1003.8 - 1.8
25/07:00pm 6.9 -4.1 6.6 98 0.1 NNW 54 70 29 38 1004.0 - 1.8
25/06:30pm 6.7 -5.0 6.4 98 0.1 NNW 57 82 31 44 1003.4 - 1.2
25/06:00pm 6.7 -6.1 6.4 98 0.1 N 63 80 34 43 1002.1 1003.0 0.4
25/05:30pm 7.0 -7.1 6.4 96 0.3 N 70 91 38 49 1001.8 - 0.0
25/05:01pm 6.7 -4.4 6.3 97 0.2 N 54 72 29 39 1002.8 - 0.0
25/05:00pm 6.8 -4.3 6.2 96 0.3 N 54 69 29 37 1002.9 - 0.0
25/04:30pm 7.1 -3.7 5.9 92 0.6 N 52 69 28 37 1003.6 - 0.0
25/04:00pm 7.1 -2.6 5.6 90 0.7 N 46 59 25 32 1004.7 - 0.0
25/03:30pm 7.2 -3.8 5.2 87 0.9 N 52 67 28 36 1004.8 - 0.0
25/03:00pm 7.7 -1.7 4.3 79 1.5 N 43 56 23 30 1005.4 1006.3 0.0
25/02:30pm 7.7 -0.9 4.7 81 1.4 N 39 52 21 28 1006.0 - 0.0
25/02:00pm 8.1 -0.1 4.9 80 1.5 N 37 54 20 29 1006.0 - 0.0
25/01:30pm 7.6 -0.2 5.1 84 1.1 N 35 50 19 27 1007.2 - 0.0
25/01:00pm 7.0 -0.6 5.6 91 0.6 NNW 35 46 19 25 1008.0 - 0.0
25/12:30pm 6.6 0.4 6.3 98 0.1 NNW 28 39 15 21 1008.4 - 0.0
25/12:27pm 6.5 0.2 5.9 96 0.3 NNW 28 39 15 21 1008.4 - 0.0
25/12:00pm 7.1 -0.3 4.9 86 1.0 NW 33 43 18 23 1008.7 1009.6 0.0
25/11:30am 7.1 1.4 6.5 96 0.3 NNW 26 35 14 19 1009.1 - 0.0
25/11:00am 6.4 0.6 6.3 99 0.0 N 26 33 14 18 1009.3 - 0.0
25/10:30am 5.6 0.0 5.5 99 0.0 N 24 32 13 17 1009.5 - 0.0
25/10:00am 5.4 -0.2 5.3 99 0.0 N 24 32 13 17 1009.4 - 0.0
25/09:30am 5.0 -1.1 4.9 99 0.0 N 26 33 14 18 1009.3 - 0.0
25/09:25am 5.1 -0.6 5.0 99 0.0 N 24 32 13 17 1009.2 - 0.0
25/09:00am 4.6 -0.8 4.5 99 0.0 N 22 28 12 15 1009.2 1010.1 3.4
25/08:30am 4.3 -1.5 4.2 99 0.0 N 24 30 13 16 1009.1 - 3.4
25/08:00am 4.0 -2.3 3.9 99 0.0 N 26 33 14 18 1008.8 - 3.4
25/07:30am 3.7 -3.0 3.6 99 0.0 N 28 35 15 19 1008.3 - 3.2
25/07:22am 3.7 -3.0 3.6 99 0.0 N 28 33 15 18 1008.2 - 3.2
25/07:00am 3.8 -2.5 3.7 99 0.0 N 26 32 14 17 1007.7 - 3.2
25/06:30am 3.7 -2.3 3.6 99 0.0 N 24 30 13 16 1007.6 - 3.2
25/06:26am 3.6 -2.4 3.5 99 0.0 N 24 28 13 15 1007.6 - 3.2
25/06:24am 3.6 -2.0 3.5 99 0.0 N 22 28 12 15 1007.5 - 3.2
25/06:23am 3.6 -2.0 3.5 99 0.0 N 22 28 12 15 1007.5 - 3.2
25/06:00am 3.9 -1.6 3.8 99 0.0 N 22 26 12 14 1007.3 1008.2 3.2
25/05:30am 3.9 -1.3 3.8 99 0.0 N 20 24 11 13 1006.9 - 3.2
25/05:26am 3.8 -1.4 3.7 99 0.0 N 20 24 11 13 1006.9 - 3.2
25/05:23am 3.8 -1.4 3.7 99 0.0 N 20 24 11 13 1006.9 - 3.2
25/05:00am 4.2 -0.9 4.1 99 0.0 NNW 20 32 11 17 1006.9 - 3.2
25/04:34am 4.0 -2.3 3.9 99 0.0 N 26 32 14 17 1006.2 - 3.2
25/04:30am 3.9 -2.4 3.8 99 0.0 N 26 32 14 17 1006.1 - 3.2
25/04:24am 3.9 -2.4 3.8 99 0.0 N 26 32 14 17 1006.1 - 3.2
25/04:21am 4.0 -2.3 3.9 99 0.0 N 26 30 14 16 1006.2 - 3.2
25/04:00am 3.7 -2.3 3.6 99 0.0 N 24 30 13 16 1005.9 - 3.2
25/03:30am 4.0 -1.6 3.7 98 0.1 NNW 22 32 12 17 1005.7 - 3.2
25/03:00am 4.1 -1.8 3.8 98 0.1 NNW 24 30 13 16 1005.6 1006.5 3.2
25/02:30am 4.2 -2.1 3.9 98 0.1 NNW 26 37 14 20 1005.3 - 3.2
25/02:00am 4.2 -1.7 4.1 99 0.0 NNW 24 32 13 17 1005.3 - 3.2
25/01:33am 4.2 -2.8 4.1 99 0.0 NNW 30 35 16 19 1005.0 - 3.2
25/01:30am 4.2 -2.4 4.1 99 0.0 NNW 28 35 15 19 1005.0 - 3.2
25/01:00am 4.3 -2.3 4.2 99 0.0 N 28 35 15 19 1004.9 - 3.2
25/12:30am 4.3 -1.5 4.2 99 0.0 N 24 32 13 17 1005.1 - 3.2
25/12:24am 4.3 -2.3 4.2 99 0.0 N 28 35 15 19 1005.1 - 3.2
25/12:23am 4.3 -2.3 4.2 99 0.0 NNW 28 35 15 19 1005.1 - 3.2
25/12:00am 4.2 -3.4 4.1 99 0.0 N 33 43 18 23 1004.9 1005.8 3.2
 
Date/Time
EST
Temp
°C
App
Temp
°C
Dew
Point
°C
Rel
Hum
%
Delta-T
°C
Wind Press
QNH
hPa
Press
MSL
hPa
Rain since
9am
mm
Dir  Spd
km/h
Gust
km/h
Spd
kts
Gust
kts
24/11:34pm 4.1 -3.3 4.0 99 0.0 N 32 41 17 22 1005.0 - 3.2
24/11:30pm 4.2 -3.2 4.1 99 0.0 N 32 41 17 22 1004.9 - 3.2
24/11:26pm 4.2 -2.8 4.1 99 0.0 N 30 39 16 21 1004.9 - 3.2
24/11:00pm 4.4 -2.6 4.3 99 0.0 NNW 30 37 16 20 1004.9 - 3.2
24/10:30pm 4.4 -1.8 4.3 99 0.0 NNW 26 33 14 18 1005.0 - 3.2
24/10:28pm 4.4 -1.8 4.3 99 0.0 NNW 26 33 14 18 1005.0 - 3.2
24/10:00pm 4.2 -1.3 4.1 99 0.0 NNW 22 30 12 16 1005.0 - 3.2
24/09:30pm 4.3 -1.9 4.2 99 0.0 NNW 26 32 14 17 1005.1 - 3.2
24/09:22pm 4.5 -2.4 4.4 99 0.0 NNW 30 39 16 21 1005.1 - 3.2
24/09:00pm 4.4 -3.5 4.3 99 0.0 N 35 44 19 24 1004.9 1005.8 3.0
24/08:30pm 4.2 -2.8 4.1 99 0.0 N 30 39 16 21 1004.9 - 3.0
24/08:28pm 4.2 -2.8 4.1 99 0.0 N 30 39 16 21 1005.0 - 3.0
24/08:04pm 3.9 -3.5 3.8 99 0.0 N 32 39 17 21 1004.6 - 3.0
24/08:00pm 3.9 -3.5 3.8 99 0.0 N 32 41 17 22 1004.6 - 3.0
24/07:30pm 3.8 -4.6 3.7 99 0.0 N 37 44 20 24 1004.3 - 3.0
24/07:00pm 4.8 -4.2 4.7 99 0.0 N 41 56 22 30 1004.6 - 2.4
24/06:57pm 5.0 -3.9 4.9 99 0.0 N 41 56 22 30 1004.5 - 2.2
24/06:30pm 4.9 -3.7 4.8 99 0.0 N 39 50 21 27 1004.2 - 0.6
24/06:27pm 4.9 -3.7 4.8 99 0.0 N 39 50 21 27 1004.2 - 0.6
24/06:24pm 4.8 -3.4 4.7 99 0.0 N 37 50 20 27 1004.0 - 0.6
24/06:00pm 4.5 -3.8 4.4 99 0.0 N 37 46 20 25 1004.5 1005.3 0.6
24/05:30pm 4.5 -2.8 4.4 99 0.0 N 32 39 17 21 1004.7 - 0.6
24/05:28pm 4.4 -2.9 4.3 99 0.0 N 32 39 17 21 1004.7 - 0.6
24/05:27pm 4.4 -2.9 4.3 99 0.0 N 32 39 17 21 1004.7 - 0.6
24/05:23pm 4.4 -2.9 4.3 99 0.0 N 32 39 17 21 1004.7 - 0.6
24/05:00pm 4.6 -2.9 4.5 99 0.0 N 33 43 18 23 1004.8 - 0.6
24/04:30pm 5.0 -1.5 4.9 99 0.0 N 28 35 15 19 1005.3 - 0.2
24/04:00pm 4.5 -3.0 4.4 99 0.0 N 33 39 18 21 1005.1 - 0.2
24/03:57pm 4.5 -3.0 4.4 99 0.0 N 33 39 18 21 1005.1 - 0.2
24/03:30pm 4.4 -3.1 4.3 99 0.0 N 33 44 18 24 1005.5 - 0.2
24/03:29pm 4.4 -3.1 4.3 99 0.0 N 33 44 18 24 1005.5 - 0.2
24/03:26pm 4.4 -2.9 4.3 99 0.0 N 32 44 17 24 1005.6 - 0.2
24/03:00pm 4.4 -3.1 4.3 99 0.0 N 33 43 18 23 1005.9 1006.8 0.2
24/02:30pm 3.9 -4.1 3.8 99 0.0 N 35 46 19 25 1005.9 - 0.2
24/02:25pm 4.0 -4.4 3.9 99 0.0 N 37 50 20 27 1005.9 - 0.2
24/02:00pm 4.2 -3.4 4.1 99 0.0 N 33 48 18 26 1006.3 - 0.0
24/01:30pm 4.0 -4.4 3.9 99 0.0 N 37 46 20 25 1006.7 - 0.0
24/01:00pm 3.7 -6.1 3.6 99 0.0 N 44 56 24 30 1007.0 - 0.0
24/12:30pm 3.7 -6.1 3.6 99 0.0 N 44 59 24 32 1007.2 - 0.0
24/12:26pm 3.3 -7.3 3.2 99 0.0 N 48 59 26 32 1007.5 - 0.0
24/12:23pm 3.0 -7.6 2.9 99 0.0 N 48 59 26 32 1007.5 - 0.0
24/12:10pm 3.1 -6.6 3.0 99 0.0 N 43 54 23 29 1007.7 - 0.0
24/12:08pm 3.0 -6.7 2.9 99 0.0 N 43 54 23 29 1007.7 - 0.0
24/12:05pm 2.8 -6.5 2.7 99 0.0 N 41 54 22 29 1007.8 - 0.0
24/12:00pm 2.9 -6.8 2.8 99 0.0 N 43 54 23 29 1008.1 1009.1 0.0
24/11:30am 2.4 -6.3 2.3 99 0.0 N 37 44 20 24 1009.0 - 0.0
24/11:00am 2.0 -5.8 1.9 99 0.0 N 32 39 17 21 1009.9 - 0.0
24/10:54am 2.0 -6.0 1.9 99 0.0 N 33 43 18 23 1010.0 - 0.0
24/10:51am 1.9 -6.1 1.8 99 0.0 N 33 43 18 23 1009.9 - 0.0
24/10:30am 1.8 -6.2 1.7 99 0.0 N 33 41 18 22 1010.0 - 0.0
24/10:29am 1.7 -6.3 1.6 99 0.0 N 33 41 18 22 1009.9 - 0.0
24/10:28am 1.8 -6.2 1.7 99 0.0 N 33 41 18 22 1009.9 - 0.0
24/10:27am 1.8 -6.2 1.7 99 0.0 N 33 41 18 22 1009.9 - 0.0
24/10:23am 1.6 -6.8 1.5 99 0.0 N 35 44 19 24 1009.9 - 0.0
24/10:02am 1.4 -7.8 1.3 99 0.0 N 39 50 21 27 1009.7 - 0.0
24/10:01am 1.4 -7.8 1.3 99 0.0 N 39 50 21 27 1009.7 - 0.0
24/10:00am 1.4 -7.8 1.3 99 0.0 N 39 50 21 27 1009.7 - 0.0
24/09:32am 1.3 -7.2 1.2 99 0.0 N 35 48 19 26 1009.8 - 0.0
24/09:30am 1.6 -6.4 1.5 99 0.0 N 33 43 18 23 1009.9 - 0.0
24/09:00am 1.0 -7.1 0.9 99 0.0 N 33 41 18 22 1010.2 1011.2 1.4
24/08:30am 0.6 -7.6 0.5 99 0.0 N 33 41 18 22 1010.1 - 1.0
24/08:24am 0.5 -7.5 0.4 99 0.0 N 32 39 17 21 1010.1 - 1.0
24/08:22am 0.5 -7.5 0.4 99 0.0 N 32 37 17 20 1010.1 - 1.0
24/08:00am 0.3 -7.7 0.2 99 0.0 N 32 39 17 21 1010.0 - 1.0
24/07:57am 0.3 -7.7 0.2 99 0.0 N 32 39 17 21 1010.1 - 1.0
24/07:55am 0.3 -7.4 0.2 99 0.0 N 30 37 16 20 1010.0 - 1.0
24/07:30am 0.1 -8.0 0.0 99 0.0 N 32 37 17 20 1010.1 - 1.0
24/07:00am 0.0 -7.7 -0.3 98 0.1 N 30 35 16 19 1010.2 - 1.0
24/06:30am -0.2 -6.8 -0.5 98 0.1 N 24 28 13 15 1010.2 - 1.0
24/06:00am -0.2 -6.1 -0.5 98 0.1 N 20 24 11 13 1010.2 1011.2 1.0
24/05:30am -0.3 -6.0 -0.6 98 0.1 N 19 20 10 11 1010.1 - 1.0
24/05:00am -0.3 -6.0 -0.6 98 0.1 N 19 20 10 11 1010.3 - 1.0
24/04:53am -0.2 -5.9 -0.5 98 0.1 N 19 20 10 11 1010.6 - 1.0
24/04:30am 0.3 -5.5 0.0 98 0.1 N 20 24 11 13 1010.9 - 1.0
24/04:00am 0.6 -5.5 0.3 98 0.1 N 22 26 12 14 1011.2 - 1.0
24/03:30am 0.9 -5.2 0.6 98 0.1 N 22 26 12 14 1011.4 - 1.0
24/03:00am 1.3 -4.3 0.9 97 0.2 N 20 24 11 13 1011.5 1012.5 1.0
24/02:30am 1.5 -4.5 1.2 98 0.1 N 22 28 12 15 1011.7 - 1.0
24/02:00am 1.0 -4.1 0.7 98 0.1 N 17 20 9 11 1011.6 - 1.0
24/01:30am 1.7 -3.3 1.1 96 0.2 N 17 19 9 10 1011.6 - 1.0
24/01:00am 2.8 -2.2 1.3 90 0.6 NNW 17 20 9 11 1011.8 - 1.0
24/12:30am 2.1 -2.6 1.2 94 0.4 NW 15 19 8 10 1011.9 - 1.0

Other Formats:

Comma delimited format used in spreadsheet applications
http://www.bom.gov.au/fwo/IDV60801/IDV60801.94860.axf

JavaScript Object Notation format (JSON) in row-major order
http://www.bom.gov.au/fwo/IDV60801/IDV60801.94860.json